Time;durP1;ratioP1;P1;durP2;ratioP2;P2;SDS_P1;SDS_P2;PMS_P1;PMS_P2;Temp;Humidity;BMP_temperature;BMP_pressure;BME280_temperature;BME280_humidity;BME280_pressure;Samples;Min_cycle;Max_cycle;Signal;HPM_P1;HPM_P2
2022/03/20 00:00:55;;;;;;;0.00;0.00;;;9.60;51.00;;;;;;4133358;28;20086;-70
2022/03/20 00:03:17;;;;;;;0.00;0.00;;;9.40;51.50;;;;;;4120018;28;20095;-69
2022/03/20 00:05:48;;;;;;;0.00;0.00;;;9.40;51.50;;;;;;4119964;28;20068;-71
2022/03/20 00:08:12;;;;;;;0.00;0.00;;;9.30;51.60;;;;;;4106295;28;20478;-71
2022/03/20 00:10:42;;;;;;;0.00;0.00;;;9.40;51.80;;;;;;4120141;28;20047;-72
2022/03/20 00:13:10;;;;;;;0.00;0.00;;;9.30;52.30;;;;;;4106790;28;20048;-73
2022/03/20 00:15:33;;;;;;;0.00;0.00;;;9.20;51.80;;;;;;4120173;28;20051;-73
2022/03/20 00:17:57;;;;;;;0.00;0.00;;;9.20;51.90;;;;;;4119933;28;20051;-71
2022/03/20 00:20:19;;;;;;;0.00;0.00;;;9.10;51.90;;;;;;4119356;28;20055;-74
2022/03/20 00:22:42;;;;;;;0.00;0.00;;;9.20;52.10;;;;;;4120326;28;20044;-73
2022/03/20 00:25:09;;;;;;;0.00;0.00;;;9.10;52.30;;;;;;4103782;28;20086;-73
2022/03/20 00:27:34;;;;;;;0.00;0.00;;;9.00;52.40;;;;;;4117473;28;20066;-72
2022/03/20 00:29:59;;;;;;;0.00;0.00;;;8.90;52.50;;;;;;4103708;28;20139;-72
2022/03/20 00:32:21;;;;;;;0.00;0.00;;;8.90;52.50;;;;;;4116506;28;20050;-72
2022/03/20 00:34:43;;;;;;;0.00;0.00;;;8.80;52.70;;;;;;4104064;28;20051;-72
2022/03/20 00:37:06;;;;;;;0.00;0.00;;;8.80;52.80;;;;;;4111946;28;20038;-72
2022/03/20 00:39:34;;;;;;;0.00;0.00;;;8.90;52.90;;;;;;4119626;28;20113;-70
2022/03/20 00:41:59;;;;;;;0.00;0.00;;;8.90;52.80;;;;;;4119909;28;20158;-72
2022/03/20 00:44:21;;;;;;;0.00;0.00;;;8.80;52.90;;;;;;4118791;28;20122;-71
2022/03/20 00:46:50;;;;;;;0.00;0.00;;;8.80;53.00;;;;;;4118952;28;20047;-72
2022/03/20 00:49:13;;;;;;;0.00;0.00;;;8.70;53.30;;;;;;4105925;28;20548;-73
2022/03/20 00:51:36;;;;;;;0.00;0.00;;;8.70;53.40;;;;;;4133057;28;20050;-73
2022/03/20 00:53:58;;;;;;;0.00;0.00;;;8.60;53.50;;;;;;4119437;28;20536;-72
2022/03/20 00:56:22;;;;;;;0.00;0.00;;;8.70;53.60;;;;;;4119125;28;20046;-72
2022/03/20 00:58:49;;;;;;;0.00;0.00;;;8.70;53.60;;;;;;4119434;28;20070;-73
2022/03/20 01:01:14;;;;;;;0.00;0.00;;;8.70;53.60;;;;;;4132760;28;20050;-73
2022/03/20 01:03:38;;;;;;;0.00;0.00;;;8.70;53.70;;;;;;4117990;28;20588;-73
2022/03/20 01:06:00;;;;;;;0.00;0.00;;;8.70;53.90;;;;;;4105919;28;20051;-74
2022/03/20 01:08:38;;;;;;;0.00;0.00;;;8.70;53.90;;;;;;4108790;28;20112;-71
2022/03/20 01:11:04;;;;;;;0.00;0.00;;;8.60;53.90;;;;;;4119474;28;20080;-73
2022/03/20 01:13:29;;;;;;;0.00;0.00;;;8.70;54.10;;;;;;4133237;28;20046;-72
2022/03/20 01:15:57;;;;;;;0.00;0.00;;;8.70;54.20;;;;;;4133167;28;20543;-72
2022/03/20 01:18:32;;;;;;;0.00;0.00;;;8.70;54.30;;;;;;4120073;28;20463;-75
2022/03/20 01:20:58;;;;;;;0.00;0.00;;;8.70;54.30;;;;;;4105544;28;20078;-71
2022/03/20 01:23:23;;;;;;;0.00;0.00;;;8.70;54.40;;;;;;4133198;28;20101;-72
2022/03/20 01:25:59;;;;;;;0.00;0.00;;;8.70;54.60;;;;;;4132594;28;20046;-74
2022/03/20 01:28:26;;;;;;;0.00;0.00;;;8.60;54.70;;;;;;4132695;28;20065;-73
2022/03/20 01:30:51;;;;;;;0.00;0.00;;;8.60;54.80;;;;;;4118623;28;20363;-72
2022/03/20 01:33:27;;;;;;;0.00;0.00;;;8.50;54.90;;;;;;4119948;28;20042;-74
2022/03/20 01:36:10;;;;;;;0.00;0.00;;;8.50;55.20;;;;;;4116298;28;20051;-73
2022/03/20 01:38:44;;;;;;;0.00;0.00;;;8.50;55.30;;;;;;4118586;28;20053;-69
2022/03/20 01:41:08;;;;;;;0.00;0.00;;;8.40;55.40;;;;;;4118866;28;20062;-71
2022/03/20 01:43:38;;;;;;;0.00;0.00;;;8.40;55.60;;;;;;4132823;28;20085;-76
2022/03/20 01:46:12;;;;;;;0.00;0.00;;;8.40;55.60;;;;;;4106989;28;20124;-72
2022/03/20 01:48:50;;;;;;;0.00;0.00;;;8.40;55.80;;;;;;4118383;28;20356;-72
2022/03/20 01:52:10;;;;;;;0.00;0.00;;;8.40;55.90;;;;;;4132942;28;20046;-73
2022/03/20 01:54:12;;;;;;;0.00;0.00;;;8.30;56.00;;;;;;4108113;28;20090;-71
2022/03/20 01:56:51;;;;;;;0.00;0.00;;;8.30;56.40;;;;;;4120167;28;20056;-72
2022/03/20 01:59:22;;;;;;;0.00;0.00;;;8.20;56.40;;;;;;4132061;28;20050;-70
2022/03/20 02:01:54;;;;;;;0.00;0.00;;;8.10;56.40;;;;;;4132141;28;20054;-73
2022/03/20 02:04:33;;;;;;;0.00;0.00;;;8.10;56.70;;;;;;4103531;28;20078;-72
2022/03/20 02:07:10;;;;;;;;;;;8.00;57.00;;;;;;4116973;28;20054;-73
2022/03/20 02:09:46;;;;;;;0.00;0.00;;;8.00;57.20;;;;;;4117547;28;19925;-72
2022/03/20 02:12:23;;;;;;;0.00;0.00;;;7.90;57.30;;;;;;4131424;28;20381;-72
2022/03/20 02:14:53;;;;;;;0.00;0.00;;;7.90;57.50;;;;;;4132477;28;20133;-72
2022/03/20 02:17:31;;;;;;;0.00;0.00;;;7.90;57.60;;;;;;4133022;28;20456;-72
2022/03/20 02:20:03;;;;;;;0.00;0.00;;;7.90;57.60;;;;;;4132629;28;20050;-73
2022/03/20 02:22:32;;;;;;;0.00;0.00;;;7.90;57.80;;;;;;4131908;28;20057;-70
2022/03/20 02:24:56;;;;;;;0.00;0.00;;;7.90;58.00;;;;;;4118103;28;20077;-72
2022/03/20 02:27:22;;;;;;;0.00;0.00;;;7.80;58.20;;;;;;4118211;28;20050;-72
2022/03/20 02:29:53;;;;;;;0.00;0.00;;;7.90;58.30;;;;;;4118466;28;20064;-72
2022/03/20 02:32:19;;;;;;;0.00;0.00;;;7.80;58.40;;;;;;4118269;28;20088;-74
2022/03/20 02:34:48;;;;;;;0.00;0.00;;;7.80;58.60;;;;;;4131671;28;20065;-72
2022/03/20 02:37:10;;;;;;;0.00;0.00;;;7.70;58.70;;;;;;4117824;28;20389;-75
2022/03/20 02:39:36;;;;;;;0.00;0.00;;;7.60;59.30;;;;;;4102045;28;20133;-70
2022/03/20 02:42:01;;;;;;;0.00;0.00;;;7.50;59.70;;;;;;4115482;28;20061;-71
2022/03/20 02:45:03;;;;;;;0.00;0.00;;;7.50;59.70;;;;;;4115090;28;20070;-73
2022/03/20 02:47:29;;;;;;;0.00;0.00;;;7.60;59.70;;;;;;4102344;28;20051;-72
2022/03/20 02:50:00;;;;;;;0.00;0.00;;;7.50;59.80;;;;;;4128787;28;20064;-73
2022/03/20 02:52:28;;;;;;;0.00;0.00;;;7.50;60.00;;;;;;4117647;28;20053;-73
2022/03/20 02:54:54;;;;;;;0.00;0.00;;;7.50;60.10;;;;;;4131577;28;20081;-74
2022/03/20 02:57:16;;;;;;;0.00;0.00;;;7.40;60.40;;;;;;4131605;28;20081;-71
2022/03/20 02:59:41;;;;;;;0.00;0.00;;;7.40;60.50;;;;;;4117749;28;20042;-71
2022/03/20 03:02:03;;;;;;;0.00;0.00;;;7.40;60.70;;;;;;4104763;28;20055;-74
2022/03/20 03:04:28;;;;;;;0.00;0.00;;;7.30;60.70;;;;;;4088108;28;20051;-75
2022/03/20 03:07:02;;;;;;;0.00;0.00;;;7.30;60.70;;;;;;4101948;28;20043;-72
2022/03/20 03:12:05;;;;;;;0.00;0.00;;;7.30;60.50;;;;;;4120637;28;20126;-72
2022/03/20 03:17:27;;;;;;;0.00;0.00;;;7.30;60.90;;;;;;4093896;28;20087;-72
2022/03/20 03:19:50;;;;;;;0.00;0.00;;;7.40;60.90;;;;;;4120864;28;20122;-73
2022/03/20 03:22:12;;;;;;;0.00;0.00;;;7.40;60.70;;;;;;4094020;28;20050;-73
2022/03/20 03:24:34;;;;;;;0.00;0.00;;;7.40;60.60;;;;;;4120563;28;20046;-73
2022/03/20 03:26:58;;;;;;;0.00;0.00;;;7.40;60.80;;;;;;4134160;28;20057;-74
2022/03/20 03:29:20;;;;;;;0.00;0.00;;;7.30;60.70;;;;;;4120555;28;20150;-73
2022/03/20 03:31:42;;;;;;;0.00;0.00;;;7.30;60.70;;;;;;4134312;28;20061;-70
2022/03/20 03:36:51;;;;;;;0.00;0.00;;;7.40;61.10;;;;;;4120436;28;20043;-72
2022/03/20 03:39:19;;;;;;;0.00;0.00;;;7.30;61.30;;;;;;4133951;28;20053;-72
2022/03/20 03:41:41;;;;;;;0.00;0.00;;;7.30;61.80;;;;;;4120498;28;20049;-75
2022/03/20 03:44:03;;;;;;;0.00;0.00;;;7.10;62.20;;;;;;4133923;28;20046;-73
2022/03/20 03:46:25;;;;;;;0.00;0.00;;;7.10;62.50;;;;;;4120074;28;20046;-72
2022/03/20 03:48:48;;;;;;;0.00;0.00;;;7.10;62.50;;;;;;4120339;28;20130;-71
2022/03/20 03:51:10;;;;;;;0.00;0.00;;;7.20;62.50;;;;;;4104132;28;20081;-75
2022/03/20 03:53:34;;;;;;;0.00;0.00;;;7.30;62.50;;;;;;4130852;28;20129;-71
2022/03/20 03:55:56;;;;;;;0.00;0.00;;;7.20;62.50;;;;;;4104329;28;20134;-73
2022/03/20 03:58:22;;;;;;;0.00;0.00;;;7.30;62.40;;;;;;4103592;28;20118;-72
2022/03/20 04:00:48;;;;;;;0.00;0.00;;;7.30;62.30;;;;;;4131057;28;20050;-73
2022/03/20 04:03:11;;;;;;;0.00;0.00;;;7.30;62.40;;;;;;4117580;28;20086;-71
2022/03/20 04:05:36;;;;;;;0.00;0.00;;;7.20;62.70;;;;;;4104084;28;20047;-74
2022/03/20 04:07:58;;;;;;;0.00;0.00;;;7.20;62.90;;;;;;4117600;28;20509;-74
2022/03/20 04:10:23;;;;;;;0.00;0.00;;;7.10;62.80;;;;;;4106024;28;20066;-75
2022/03/20 04:12:48;;;;;;;0.00;0.00;;;7.20;63.00;;;;;;4119822;28;20165;-73
2022/03/20 04:15:14;;;;;;;0.00;0.00;;;7.10;63.20;;;;;;4106783;28;20055;-70
2022/03/20 04:17:37;;;;;;;0.00;0.00;;;7.10;63.40;;;;;;4120005;28;20043;-73
2022/03/20 04:20:02;;;;;;;0.00;0.00;;;7.10;63.70;;;;;;4106575;28;20051;-73
2022/03/20 04:22:28;;;;;;;0.00;0.00;;;7.00;64.20;;;;;;4119489;28;20118;-74
2022/03/20 04:24:52;;;;;;;0.00;0.00;;;6.90;64.30;;;;;;4133923;28;20046;-72
2022/03/20 04:27:16;;;;;;;0.00;0.00;;;6.90;64.50;;;;;;4106551;28;20069;-72
2022/03/20 04:29:39;;;;;;;0.00;0.00;;;6.90;64.40;;;;;;4120004;28;20478;-74
2022/03/20 04:32:01;;;;;;;0.00;0.00;;;6.90;64.50;;;;;;4120092;28;20481;-73
2022/03/20 04:34:26;;;;;;;0.00;0.00;;;6.90;64.50;;;;;;4119330;28;20051;-73
2022/03/20 04:36:48;;;;;;;0.00;0.00;;;6.90;64.60;;;;;;4119768;28;20113;-76
2022/03/20 04:39:11;;;;;;;0.00;0.00;;;6.90;64.70;;;;;;4119661;28;20244;-72
2022/03/20 04:41:38;;;;;;;0.00;0.00;;;6.80;64.90;;;;;;4119645;28;20055;-72
2022/03/20 04:44:03;;;;;;;0.00;0.00;;;6.80;64.90;;;;;;4092804;28;20059;-75
2022/03/20 04:46:30;;;;;;;0.00;0.00;;;6.80;64.90;;;;;;4133176;28;20050;-72
2022/03/20 04:59:36;;;;;;;0.00;0.00;;;6.80;64.50;;;;;;4119330;28;20497;-72
2022/03/20 05:01:58;;;;;;;0.00;0.00;;;6.70;64.70;;;;;;4119072;28;20072;-77
2022/03/20 05:04:22;;;;;;;0.00;0.00;;;6.70;65.00;;;;;;4118851;28;20064;-73
2022/03/20 05:06:44;;;;;;;0.00;0.00;;;6.70;65.10;;;;;;4119415;28;20055;-75
2022/03/20 05:14:30;;;;;;;0.00;0.00;;;6.60;65.40;;;;;;4118633;28;20057;-74
2022/03/20 05:16:56;;;;;;;0.00;0.00;;;6.60;65.60;;;;;;4120038;28;20058;-72
2022/03/20 05:19:23;;;;;;;0.00;0.00;;;6.60;65.90;;;;;;4118938;28;20058;-72
2022/03/20 05:21:46;;;;;;;0.00;0.00;;;6.60;65.90;;;;;;4132977;28;20511;-72
2022/03/20 05:24:09;;;;;;;0.00;0.00;;;6.50;66.00;;;;;;4115926;28;20094;-71
2022/03/20 05:26:33;;;;;;;0.00;0.00;;;6.50;66.20;;;;;;4116446;28;20405;-72
2022/03/20 05:28:55;;;;;;;0.00;0.00;;;6.50;66.40;;;;;;4103226;28;20047;-71
2022/03/20 05:31:18;;;;;;;0.00;0.00;;;6.50;66.60;;;;;;4099121;28;20371;-72
2022/03/20 05:33:44;;;;;;;0.00;0.00;;;6.50;66.70;;;;;;4102778;28;20046;-73
2022/03/20 05:36:06;;;;;;;0.00;0.00;;;6.60;66.80;;;;;;4118628;28;20049;-72
2022/03/20 05:38:30;;;;;;;0.00;0.00;;;6.60;66.80;;;;;;4118684;28;20055;-75
2022/03/20 05:41:43;;;;;;;0.00;0.00;;;6.60;66.90;;;;;;4105136;28;20044;-73
2022/03/20 05:43:39;;;;;;;0.00;0.00;;;6.60;67.10;;;;;;4118675;28;20126;-74
2022/03/20 05:46:01;;;;;;;0.00;0.00;;;6.50;67.20;;;;;;4118638;28;20061;-71
2022/03/20 05:48:28;;;;;;;0.00;0.00;;;6.50;67.20;;;;;;4131123;28;20042;-73
2022/03/20 05:50:53;;;;;;;0.00;0.00;;;6.50;67.20;;;;;;4117808;28;20054;-73
2022/03/20 05:53:15;;;;;;;0.00;0.00;;;6.60;67.20;;;;;;4117881;28;20125;-73
2022/03/20 05:58:20;;;;;;;0.00;0.00;;;6.60;67.40;;;;;;4117364;28;20363;-72
2022/03/20 06:00:43;;;;;;;0.00;0.00;;;6.60;67.30;;;;;;4091278;28;20055;-72
2022/03/20 06:03:05;;;;;;;0.00;0.00;;;6.70;67.30;;;;;;4117943;28;20106;-73
2022/03/20 06:05:27;;;;;;;0.00;0.00;;;6.80;67.30;;;;;;4103977;28;20055;-72
2022/03/20 06:07:51;;;;;;;0.00;0.00;;;6.80;67.30;;;;;;4117604;28;20078;-72
2022/03/20 06:10:20;;;;;;;0.00;0.00;;;6.90;67.30;;;;;;4104339;28;20051;-73
2022/03/20 06:12:44;;;;;;;0.00;0.00;;;7.00;67.30;;;;;;4117730;28;20047;-72
2022/03/20 06:15:10;;;;;;;0.00;0.00;;;7.10;67.30;;;;;;4117538;28;20051;-73
2022/03/20 06:17:39;;;;;;;0.00;0.00;;;7.10;67.40;;;;;;4117597;28;20050;-70
2022/03/20 06:20:08;;;;;;;0.00;0.00;;;7.20;67.10;;;;;;4117675;28;20047;-71
2022/03/20 06:22:34;;;;;;;0.00;0.00;;;7.40;66.90;;;;;;4090240;28;20133;-71
2022/03/20 06:24:56;;;;;;;0.00;0.00;;;7.40;67.00;;;;;;4117652;28;20173;-74
2022/03/20 06:27:18;;;;;;;0.00;0.00;;;7.20;67.00;;;;;;4117230;28;20047;-74
2022/03/20 06:29:40;;;;;;;0.00;0.00;;;7.30;67.30;;;;;;4104225;28;20061;-74
2022/03/20 06:32:03;;;;;;;0.00;0.00;;;7.40;66.90;;;;;;4117466;28;20117;-75
2022/03/20 06:34:27;;;;;;;0.00;0.00;;;7.40;66.70;;;;;;4117038;28;20131;-73
2022/03/20 06:36:50;;;;;;;0.00;0.00;;;7.40;66.50;;;;;;4117444;28;20473;-74
2022/03/20 06:39:12;;;;;;;0.00;0.00;;;7.30;66.50;;;;;;4104132;28;20142;-76
2022/03/20 06:41:35;;;;;;;0.00;0.00;;;7.40;66.50;;;;;;4104410;28;20496;-71
2022/03/20 06:44:01;;;;;;;0.00;0.00;;;7.60;66.40;;;;;;4116295;28;20105;-73
2022/03/20 06:46:27;;;;;;;0.00;0.00;;;7.70;66.00;;;;;;4103812;28;20062;-74
2022/03/20 06:48:49;;;;;;;0.00;0.00;;;7.80;65.80;;;;;;4078561;28;1134477;-71
2022/03/20 06:51:11;;;;;;;0.00;0.00;;;7.90;65.80;;;;;;4104702;28;20086;-74
2022/03/20 06:53:34;;;;;;;0.00;0.00;;;7.90;65.80;;;;;;4118132;28;20569;-72
2022/03/20 06:56:02;;;;;;;0.00;0.00;;;8.10;65.90;;;;;;4118055;28;20066;-72
2022/03/20 06:58:24;;;;;;;0.00;0.00;;;8.10;65.80;;;;;;4090837;28;20447;-71
2022/03/20 07:00:46;;;;;;;0.00;0.00;;;8.20;66.00;;;;;;4115760;28;20047;-73
2022/03/20 07:03:12;;;;;;;0.00;0.00;;;8.30;65.90;;;;;;4097480;28;20047;-73
2022/03/20 07:05:36;;;;;;;0.00;0.00;;;8.50;65.50;;;;;;4104984;28;20146;-75
2022/03/20 07:08:00;;;;;;;0.00;0.00;;;8.70;65.40;;;;;;4104756;28;20064;-74
2022/03/20 07:10:24;;;;;;;0.00;0.00;;;8.70;65.20;;;;;;4104203;28;20090;-75
2022/03/20 07:12:49;;;;;;;0.00;0.00;;;8.70;65.10;;;;;;4118231;28;20038;-72
2022/03/20 07:15:12;;;;;;;0.00;0.00;;;9.00;65.00;;;;;;4105027;28;20058;-73
2022/03/20 07:17:37;;;;;;;0.00;0.00;;;9.30;64.50;;;;;;4131594;28;20104;-71
2022/03/20 07:19:59;;;;;;;0.00;0.00;;;9.40;63.80;;;;;;4118117;28;20074;-73
2022/03/20 07:22:26;;;;;;;0.00;0.00;;;9.50;64.10;;;;;;4090757;28;20091;-74
2022/03/20 07:24:53;;;;;;;0.00;0.00;;;9.60;63.60;;;;;;4111928;28;20368;-73
2022/03/20 07:29:58;;;;;;;0.00;0.00;;;9.60;62.70;;;;;;4117749;28;20058;-72
2022/03/20 07:32:20;;;;;;;0.00;0.00;;;9.80;62.40;;;;;;4131607;28;20046;-76
2022/03/20 07:34:50;;;;;;;0.00;0.00;;;10.10;62.40;;;;;;4118184;28;20050;-73
2022/03/20 07:37:18;;;;;;;0.00;0.00;;;10.30;61.40;;;;;;4105378;28;20635;-76
2022/03/20 07:39:40;;;;;;;0.00;0.00;;;10.70;60.90;;;;;;4118077;28;20109;-74
2022/03/20 07:42:02;;;;;;;0.00;0.00;;;10.90;60.20;;;;;;4118118;28;20043;-74
2022/03/20 07:44:36;;;;;;;0.00;0.00;;;10.60;59.40;;;;;;4088743;28;20087;-72
2022/03/20 07:46:58;;;;;;;0.00;0.00;;;10.60;60.10;;;;;;4096038;28;20054;-74
2022/03/20 07:49:21;;;;;;;0.00;0.00;;;11.10;59.80;;;;;;4117777;28;20059;-73
2022/03/20 07:51:50;;;;;;;0.00;0.00;;;11.60;59.50;;;;;;4117879;28;20069;-72
2022/03/20 07:54:13;;;;;;;0.00;0.00;;;12.00;58.20;;;;;;4116283;28;20130;-75
2022/03/20 07:56:35;;;;;;;0.00;0.00;;;12.00;57.10;;;;;;4094321;28;20103;-75
2022/03/20 07:59:05;;;;;;;0.00;0.00;;;12.20;57.50;;;;;;4109216;28;20172;-73
2022/03/20 08:01:35;;;;;;;0.00;0.00;;;12.20;57.20;;;;;;4104676;28;20093;-74
2022/03/20 08:04:01;;;;;;;0.00;0.00;;;12.30;56.10;;;;;;4118071;28;20047;-72
2022/03/20 08:06:25;;;;;;;0.00;0.00;;;12.30;56.20;;;;;;4130835;28;20561;-76
2022/03/20 08:08:52;;;;;;;0.00;0.00;;;12.40;56.30;;;;;;4104172;28;20044;-73
2022/03/20 08:11:14;;;;;;;0.00;0.00;;;12.60;56.20;;;;;;4104061;28;20055;-73
2022/03/20 08:13:36;;;;;;;0.00;0.00;;;12.40;55.90;;;;;;4117769;28;20046;-72
2022/03/20 08:15:59;;;;;;;0.00;0.00;;;12.30;55.90;;;;;;4104117;28;20040;-75
2022/03/20 08:18:24;;;;;;;0.00;0.00;;;12.60;56.20;;;;;;4130846;28;20130;-73
2022/03/20 08:20:49;;;;;;;0.00;0.00;;;13.00;55.80;;;;;;4131090;28;20142;-72
2022/03/20 08:23:11;;;;;;;0.00;0.00;;;12.90;55.60;;;;;;4104026;28;20050;-72
2022/03/20 08:25:33;;;;;;;0.00;0.00;;;12.90;56.10;;;;;;4090571;28;20067;-74
2022/03/20 08:27:56;;;;;;;0.00;0.00;;;13.20;55.90;;;;;;4104176;28;20065;-73
2022/03/20 08:30:18;;;;;;;0.00;0.00;;;13.50;54.90;;;;;;4103779;28;20059;-73
2022/03/20 08:32:43;;;;;;;0.00;0.00;;;13.40;54.20;;;;;;4103915;28;20047;-74
2022/03/20 08:35:05;;;;;;;0.00;0.00;;;13.60;54.70;;;;;;4117424;28;20058;-74
2022/03/20 08:37:34;;;;;;;0.00;0.00;;;13.50;54.50;;;;;;4117185;28;20046;-72
2022/03/20 08:40:03;;;;;;;0.00;0.00;;;13.60;54.80;;;;;;4104015;28;20062;-72
2022/03/20 08:42:24;;;;;;;0.00;0.00;;;13.70;54.50;;;;;;4116819;28;20058;-73
2022/03/20 08:44:50;;;;;;;0.00;0.00;;;13.80;54.50;;;;;;4116973;28;20047;-74
2022/03/20 08:47:13;;;;;;;0.00;0.00;;;13.90;54.70;;;;;;4103563;28;20055;-73
2022/03/20 08:49:37;;;;;;;0.00;0.00;;;14.10;54.00;;;;;;4115498;28;20084;-71
2022/03/20 08:51:59;;;;;;;0.00;0.00;;;14.50;53.70;;;;;;4092750;28;20669;-74
2022/03/20 08:54:23;;;;;;;0.00;0.00;;;14.40;53.70;;;;;;4119070;28;20061;-72
2022/03/20 08:56:48;;;;;;;0.00;0.00;;;14.40;54.00;;;;;;4106032;28;20043;-74
2022/03/20 08:59:10;;;;;;;0.00;0.00;;;14.80;53.30;;;;;;4119562;28;20085;-72
2022/03/20 09:01:33;;;;;;;0.00;0.00;;;15.30;52.50;;;;;;4119683;28;20154;-74
2022/03/20 09:03:55;;;;;;;0.00;0.00;;;15.50;51.20;;;;;;4106445;28;20047;-74
2022/03/20 09:06:18;;;;;;;0.00;0.00;;;15.30;51.10;;;;;;4118153;28;20063;-72
2022/03/20 09:08:40;;;;;;;0.00;0.00;;;15.00;50.90;;;;;;4119646;28;20050;-73
2022/03/20 09:11:03;;;;;;;0.00;0.00;;;15.00;51.40;;;;;;4119454;28;20043;-71
2022/03/20 09:13:25;;;;;;;0.00;0.00;;;15.00;51.30;;;;;;4105996;28;20134;-72
2022/03/20 09:18:59;;;;;;;0.00;0.00;;;15.30;50.30;;;;;;4105400;28;20044;-72
2022/03/20 09:21:11;;;;;;;0.00;0.00;;;15.70;49.60;;;;;;4119359;28;20062;-73
2022/03/20 09:23:36;;;;;;;0.00;0.00;;;15.80;49.40;;;;;;4118972;28;20347;-72
2022/03/20 09:25:58;;;;;;;0.00;0.00;;;15.80;49.60;;;;;;4119257;28;20457;-70
2022/03/20 09:28:21;;;;;;;0.00;0.00;;;16.00;49.10;;;;;;4118765;28;20059;-71
2022/03/20 09:30:45;;;;;;;0.00;0.00;;;16.50;48.50;;;;;;4132628;28;20334;-69
2022/03/20 09:33:11;;;;;;;0.00;0.00;;;16.90;47.20;;;;;;4119374;28;20054;-69
2022/03/20 09:35:34;;;;;;;0.00;0.00;;;16.60;46.00;;;;;;4105607;28;20059;-72
2022/03/20 09:37:56;;;;;;;0.00;0.00;;;16.60;45.70;;;;;;4105682;28;20047;-75
2022/03/20 09:40:24;;;;;;;0.00;0.00;;;16.60;45.10;;;;;;4092462;28;20106;-70
2022/03/20 09:42:50;;;;;;;0.00;0.00;;;16.60;45.50;;;;;;4132284;28;20396;-71
2022/03/20 09:45:14;;;;;;;0.00;0.00;;;16.20;44.50;;;;;;4119185;28;20105;-70
2022/03/20 09:47:41;;;;;;;0.00;0.00;;;16.30;44.10;;;;;;4119023;28;20050;-74
2022/03/20 09:50:03;;;;;;;0.00;0.00;;;16.80;43.70;;;;;;4102785;28;20098;-72
2022/03/20 09:52:25;;;;;;;0.00;0.00;;;16.90;42.30;;;;;;4099674;28;20051;-74
2022/03/20 09:54:47;;;;;;;0.00;0.00;;;17.00;41.80;;;;;;4086978;29;20062;-72
2022/03/20 09:57:15;;;;;;;0.00;0.00;;;16.90;39.80;;;;;;4100356;29;20059;-71
2022/03/20 09:59:42;;;;;;;0.00;0.00;;;16.70;39.70;;;;;;4100329;28;20147;-72
2022/03/20 10:02:11;;;;;;;0.00;0.00;;;16.80;40.20;;;;;;4086692;28;20136;-71
2022/03/20 10:05:11;;;;;;;0.00;0.00;;;17.00;39.40;;;;;;4100273;29;20039;-73
2022/03/20 10:07:42;;;;;;;0.00;0.00;;;17.10;39.40;;;;;;4100088;28;20051;-73
2022/03/20 10:10:13;;;;;;;0.00;0.00;;;16.90;39.70;;;;;;4086579;29;20047;-72
2022/03/20 10:12:44;;;;;;;0.00;0.00;;;17.00;39.90;;;;;;4062107;29;20146;-74
2022/03/20 10:15:09;;;;;;;0.00;0.00;;;17.30;38.90;;;;;;4086708;29;20051;-73
2022/03/20 10:17:33;;;;;;;0.00;0.00;;;18.00;39.30;;;;;;4086223;29;20059;-71
2022/03/20 10:20:21;;;;;;;0.00;0.00;;;18.40;38.30;;;;;;4101087;28;20114;-71
2022/03/20 10:22:44;;;;;;;0.00;0.00;;;18.40;36.90;;;;;;4075656;28;20047;-71
2022/03/20 10:25:11;;;;;;;0.00;0.00;;;18.50;37.10;;;;;;4102255;28;20078;-75
2022/03/20 10:27:33;;;;;;;0.00;0.00;;;18.70;37.00;;;;;;4088938;28;20467;-72
2022/03/20 10:29:58;;;;;;;0.00;0.00;;;19.30;36.30;;;;;;4089202;28;20054;-73
2022/03/20 10:32:29;;;;;;;0.00;0.00;;;19.60;35.00;;;;;;4075074;28;20471;-70
2022/03/20 10:35:04;;;;;;;0.00;0.00;;;20.00;34.40;;;;;;4102274;28;20454;-73
2022/03/20 10:37:49;;;;;;;0.00;0.00;;;20.20;34.30;;;;;;4075095;28;20140;-71
2022/03/20 10:40:15;;;;;;;0.00;0.00;;;20.90;34.00;;;;;;4100007;28;20142;-71
2022/03/20 10:42:41;;;;;;;0.00;0.00;;;21.30;33.30;;;;;;4102613;28;20047;-72
2022/03/20 10:45:10;;;;;;;0.00;0.00;;;21.20;32.70;;;;;;4115593;28;20046;-70
2022/03/20 10:47:32;;;;;;;0.00;0.00;;;21.00;32.30;;;;;;4062795;28;20052;-73
2022/03/20 10:50:03;;;;;;;0.00;0.00;;;21.10;32.50;;;;;;4101998;28;20055;-72
2022/03/20 10:52:25;;;;;;;;;;;21.60;32.20;;;;;;4099581;29;20440;-70
2022/03/20 10:54:51;;;;;;;0.00;0.00;;;21.60;32.20;;;;;;4099924;28;19922;-71
2022/03/20 10:57:14;;;;;;;0.00;0.00;;;21.60;32.30;;;;;;4086471;29;20379;-71
2022/03/20 10:59:36;;;;;;;0.00;0.00;;;21.50;32.20;;;;;;4098587;28;20453;-72
2022/03/20 11:02:00;;;;;;;0.00;0.00;;;21.80;32.40;;;;;;4088770;28;20047;-73
2022/03/20 11:04:28;;;;;;;0.00;0.00;;;21.70;31.80;;;;;;4101616;28;20130;-72
2022/03/20 11:06:54;;;;;;;0.00;0.00;;;21.90;31.80;;;;;;4088741;28;20054;-74
2022/03/20 11:09:19;;;;;;;0.00;0.00;;;22.00;33.00;;;;;;4102300;28;20051;-71
2022/03/20 11:11:51;;;;;;;0.00;0.00;;;21.90;32.60;;;;;;4101624;28;20145;-70
2022/03/20 11:14:21;;;;;;;0.00;0.00;;;21.60;35.00;;;;;;4086601;28;20395;-72
2022/03/20 11:16:50;;;;;;;0.00;0.00;;;21.30;33.20;;;;;;4114895;28;20050;-75
2022/03/20 11:19:20;;;;;;;0.00;0.00;;;20.90;34.80;;;;;;4088797;28;20052;-72
2022/03/20 11:21:47;;;;;;;0.00;0.00;;;21.10;33.30;;;;;;4075989;28;20058;-72
2022/03/20 11:24:10;;;;;;;0.00;0.00;;;21.10;33.40;;;;;;4088538;28;20055;-72
2022/03/20 11:26:33;;;;;;;0.00;0.00;;;21.30;33.70;;;;;;4101895;28;20058;-71
2022/03/20 11:28:59;;;;;;;0.00;0.00;;;21.40;34.10;;;;;;4115453;28;20054;-72
2022/03/20 11:31:22;;;;;;;0.00;0.00;;;20.80;33.70;;;;;;4105430;28;20057;-71
2022/03/20 11:33:47;;;;;;;0.00;0.00;;;20.70;33.20;;;;;;4104986;28;20102;-72
2022/03/20 11:36:16;;;;;;;0.00;0.00;;;20.50;31.60;;;;;;4077166;28;20149;-73
2022/03/20 11:38:40;;;;;;;0.00;0.00;;;19.90;30.90;;;;;;4078354;28;20119;-73
2022/03/20 11:41:16;;;;;;;0.00;0.00;;;19.40;30.30;;;;;;4091403;28;20043;-71
2022/03/20 11:43:44;;;;;;;0.00;0.00;;;20.20;29.90;;;;;;4078287;28;20051;-73
2022/03/20 11:46:34;;;;;;;0.00;0.00;;;21.00;29.40;;;;;;4102075;28;20542;-72
2022/03/20 11:49:17;;;;;;;0.00;0.00;;;21.50;28.50;;;;;;4102521;28;20051;-73
2022/03/20 11:52:08;;;;;;;0.00;0.00;;;21.90;28.60;;;;;;4089101;29;20043;-73
2022/03/20 11:54:52;;;;;;;0.00;0.00;;;21.50;28.90;;;;;;4088460;29;20040;-69
2022/03/20 11:57:26;;;;;;;0.00;0.00;;;21.70;28.90;;;;;;4102379;28;20370;-70
2022/03/20 11:59:48;;;;;;;0.00;0.00;;;21.60;29.20;;;;;;4102008;28;20054;-72
2022/03/20 12:02:19;;;;;;;0.00;0.00;;;21.80;28.80;;;;;;4089709;28;20048;-72
2022/03/20 12:05:11;;;;;;;0.00;0.00;;;21.90;28.40;;;;;;4104976;28;20051;-71
2022/03/20 12:08:11;;;;;;;0.00;0.00;;;21.70;28.30;;;;;;4104772;28;20051;-73
2022/03/20 12:11:01;;;;;;;0.00;0.00;;;21.40;28.30;;;;;;4088431;29;20059;-70
2022/03/20 12:13:40;;;;;;;0.00;0.00;;;21.40;28.70;;;;;;4101798;29;20504;-72
2022/03/20 12:16:09;;;;;;;0.00;0.00;;;21.00;29.20;;;;;;4101978;28;20047;-71
2022/03/20 12:19:11;;;;;;;0.00;0.00;;;20.60;29.50;;;;;;4087938;29;20055;-73
2022/03/20 12:21:56;;;;;;;0.00;0.00;;;20.70;29.40;;;;;;4062033;29;20056;-71
2022/03/20 12:24:37;;;;;;;0.00;0.00;;;21.60;29.60;;;;;;4088038;29;20072;-72
2022/03/20 12:29:49;;;;;;;0.00;0.00;;;22.70;28.20;;;;;;4101592;28;20114;-70
2022/03/20 12:32:15;;;;;;;0.00;0.00;;;22.40;28.10;;;;;;4088077;29;20059;-69
2022/03/20 12:34:39;;;;;;;0.00;0.00;;;22.00;28.70;;;;;;4088434;29;20053;-71
2022/03/20 12:37:28;;;;;;;0.00;0.00;;;21.20;28.70;;;;;;4101628;28;20378;-73
2022/03/20 12:39:52;;;;;;;0.00;0.00;;;21.10;29.70;;;;;;4075043;29;20052;-72
2022/03/20 12:42:19;;;;;;;0.00;0.00;;;21.10;29.40;;;;;;4087916;29;20055;-70
2022/03/20 12:44:51;;;;;;;0.00;0.00;;;20.90;29.70;;;;;;4088222;29;20043;-72
2022/03/20 12:47:19;;;;;;;0.00;0.00;;;21.50;29.40;;;;;;4088563;29;20056;-74
2022/03/20 12:49:45;;;;;;;0.00;0.00;;;21.90;29.20;;;;;;4102884;28;20039;-73
2022/03/20 12:52:11;;;;;;;0.00;0.00;;;21.70;29.00;;;;;;4119467;28;20046;-76
2022/03/20 12:54:36;;;;;;;0.00;0.00;;;21.50;29.00;;;;;;4106472;28;20090;-75
2022/03/20 12:57:04;;;;;;;0.00;0.00;;;21.70;28.80;;;;;;4119794;28;20047;-71
2022/03/20 12:59:26;;;;;;;0.00;0.00;;;21.00;28.70;;;;;;4133279;28;20057;-73
2022/03/20 13:01:48;;;;;;;0.00;0.00;;;21.00;29.30;;;;;;4120032;28;20051;-73
2022/03/20 13:04:19;;;;;;;0.00;0.00;;;21.90;29.10;;;;;;4119546;28;20046;-74
2022/03/20 13:06:44;;;;;;;0.00;0.00;;;22.20;28.80;;;;;;4120587;28;20105;-71
2022/03/20 13:09:15;;;;;;;0.00;0.00;;;22.40;28.70;;;;;;4093108;28;20043;-70
2022/03/20 13:11:51;;;;;;;0.00;0.00;;;22.30;28.70;;;;;;4119664;28;20053;-73
2022/03/20 13:14:19;;;;;;;0.00;0.00;;;22.30;28.20;;;;;;4090714;28;20126;-72
2022/03/20 13:16:55;;;;;;;0.00;0.00;;;22.40;28.20;;;;;;4106092;28;20111;-70
2022/03/20 13:19:35;;;;;;;0.00;0.00;;;22.50;28.10;;;;;;4119348;28;20069;-72
2022/03/20 13:22:03;;;;;;;0.00;0.00;;;22.10;28.50;;;;;;4119353;28;20513;-72
2022/03/20 13:24:29;;;;;;;0.00;0.00;;;22.00;28.40;;;;;;4118792;28;20426;-73
2022/03/20 13:27:01;;;;;;;0.00;0.00;;;22.30;28.50;;;;;;4132859;28;20373;-73